Eben, New York
Current Conditions -  °F | °C
As of 10:53 AM on Friday 28 Nov 2014 (Local Time) from KMSS Reporting Station
Overcast Overcast  
Wind Chill: 12°   Ceiling: 2800
Heat Index: 24°   Visibility: 10mi
Dew Point: 12°   Wind: 14mph
Humidity: 60%   Direction: 290°WNW
Pressure: 30.16"   Gusts: NA
Location:  44.6469°N, 74.9157°W
Report Text: KMSS 281553Z AUTO 29012KT 10SM OVC028 M04/M11 A3016 RMK AO2 SLP220 T10441111
Loading
Personal Weather Stations






























Interactive Weather Map New forecast layout! Learn more

10-Day Weather Forecast

Advertisements
Track Severe Weather on mobile